Ust' Kalmanka, Russia
Current Conditions -  °F | °C
As of 5:30 AM on Monday 22 Dec 2014 (Local Time) from UNBB Reporting Station
Broken Clouds Broken Clouds  
Wind Chill:   Ceiling: 3300
Heat Index: 19°   Visibility: 6mi
Dew Point: 12°   Wind: 9mph
Humidity: 74%   Direction: 180°S
Pressure: 30.18"   Gusts: NA
Location:  52.12°N, 83.32°E
Report Text: UNBB 212230Z 18004MPS 9999 FEW010 BKN033 M07/M11 Q1022 NOSIGRMK QFE744/0992 24800560
Loading
Personal Weather Stations






























Interactive Weather Map New forecast layout! Learn more

10-Day Weather Forecast

Advertisements
Track Severe Weather on mobile